sensor_id;sensor_type;location;lat;lon;timestamp;temperature;humidity
69031;DHT22;56083;48.774;8.942;2023-06-05T00:01:44;11.00;99.90
69031;DHT22;56083;48.774;8.942;2023-06-05T00:04:10;11.00;99.90
69031;DHT22;56083;48.774;8.942;2023-06-05T00:06:35;10.90;99.90
69031;DHT22;56083;48.774;8.942;2023-06-05T00:09:03;10.80;99.90
69031;DHT22;56083;48.774;8.942;2023-06-05T00:11:29;10.80;99.90
69031;DHT22;56083;48.774;8.942;2023-06-05T00:13:55;10.70;99.90
69031;DHT22;56083;48.774;8.942;2023-06-05T00:16:20;10.70;99.90
69031;DHT22;56083;48.774;8.942;2023-06-05T00:18:46;10.60;99.90
69031;DHT22;56083;48.774;8.942;2023-06-05T00:21:13;10.60;99.90
69031;DHT22;56083;48.774;8.942;2023-06-05T00:23:38;10.60;99.90
69031;DHT22;56083;48.774;8.942;2023-06-05T00:26:04;10.60;99.90
69031;DHT22;56083;48.774;8.942;2023-06-05T00:28:30;10.50;99.90
69031;DHT22;56083;48.774;8.942;2023-06-05T00:30:56;10.50;99.90
69031;DHT22;56083;48.774;8.942;2023-06-05T00:33:21;10.40;99.90
69031;DHT22;56083;48.774;8.942;2023-06-05T00:35:47;10.40;99.90
69031;DHT22;56083;48.774;8.942;2023-06-05T00:38:12;10.40;99.90
69031;DHT22;56083;48.774;8.942;2023-06-05T00:40:38;10.30;99.90
69031;DHT22;56083;48.774;8.942;2023-06-05T00:43:04;10.30;99.90
69031;DHT22;56083;48.774;8.942;2023-06-05T00:45:31;10.30;99.90
69031;DHT22;56083;48.774;8.942;2023-06-05T00:47:57;10.20;99.90
69031;DHT22;56083;48.774;8.942;2023-06-05T00:50:22;10.20;99.90
69031;DHT22;56083;48.774;8.942;2023-06-05T00:52:49;10.20;99.90
69031;DHT22;56083;48.774;8.942;2023-06-05T00:55:15;10.20;99.90
69031;DHT22;56083;48.774;8.942;2023-06-05T00:57:41;10.10;99.90
69031;DHT22;56083;48.774;8.942;2023-06-05T01:00:07;10.10;99.90
69031;DHT22;56083;48.774;8.942;2023-06-05T01:02:34;10.10;99.90
69031;DHT22;56083;48.774;8.942;2023-06-05T01:05:02;10.10;99.90
69031;DHT22;56083;48.774;8.942;2023-06-05T01:07:31;10.00;99.90
69031;DHT22;56083;48.774;8.942;2023-06-05T01:10:02;10.00;99.90
69031;DHT22;56083;48.774;8.942;2023-06-05T01:15:17;10.00;99.90
69031;DHT22;56083;48.774;8.942;2023-06-05T01:17:44;9.90;99.90
69031;DHT22;56083;48.774;8.942;2023-06-05T01:20:13;9.90;99.90
69031;DHT22;56083;48.774;8.942;2023-06-05T01:22:39;9.90;99.90
69031;DHT22;56083;48.774;8.942;2023-06-05T01:25:08;9.80;99.90
69031;DHT22;56083;48.774;8.942;2023-06-05T01:27:41;9.70;99.90
69031;DHT22;56083;48.774;8.942;2023-06-05T01:32:55;9.70;99.90
69031;DHT22;56083;48.774;8.942;2023-06-05T01:35:23;9.70;99.90
69031;DHT22;56083;48.774;8.942;2023-06-05T01:38:00;9.60;99.90
69031;DHT22;56083;48.774;8.942;2023-06-05T01:40:29;9.60;99.90
69031;DHT22;56083;48.774;8.942;2023-06-05T01:42:57;9.50;99.90
69031;DHT22;56083;48.774;8.942;2023-06-05T01:45:25;9.50;99.90
69031;DHT22;56083;48.774;8.942;2023-06-05T01:47:51;9.50;99.90
69031;DHT22;56083;48.774;8.942;2023-06-05T01:50:18;9.40;99.90
69031;DHT22;56083;48.774;8.942;2023-06-05T01:52:45;9.30;99.90
69031;DHT22;56083;48.774;8.942;2023-06-05T01:55:17;9.30;99.90
69031;DHT22;56083;48.774;8.942;2023-06-05T01:57:45;9.20;99.90
69031;DHT22;56083;48.774;8.942;2023-06-05T02:00:11;9.20;99.90
69031;DHT22;56083;48.774;8.942;2023-06-05T02:02:44;9.20;99.90
69031;DHT22;56083;48.774;8.942;2023-06-05T02:05:11;9.10;99.90
69031;DHT22;56083;48.774;8.942;2023-06-05T02:07:44;9.10;99.90
69031;DHT22;56083;48.774;8.942;2023-06-05T02:10:12;9.10;99.90
69031;DHT22;56083;48.774;8.942;2023-06-05T02:12:38;9.10;99.90
69031;DHT22;56083;48.774;8.942;2023-06-05T02:15:07;9.10;99.90
69031;DHT22;56083;48.774;8.942;2023-06-05T02:17:34;9.10;99.90
69031;DHT22;56083;48.774;8.942;2023-06-05T02:20:00;9.10;99.90
69031;DHT22;56083;48.774;8.942;2023-06-05T02:22:26;9.00;99.90
69031;DHT22;56083;48.774;8.942;2023-06-05T02:24:52;9.00;99.90
69031;DHT22;56083;48.774;8.942;2023-06-05T02:27:18;9.00;99.90
69031;DHT22;56083;48.774;8.942;2023-06-05T02:29:44;9.00;99.90
69031;DHT22;56083;48.774;8.942;2023-06-05T02:32:10;8.90;99.90
69031;DHT22;56083;48.774;8.942;2023-06-05T02:34:37;8.90;99.90
69031;DHT22;56083;48.774;8.942;2023-06-05T02:37:03;8.80;99.90
69031;DHT22;56083;48.774;8.942;2023-06-05T02:39:28;8.80;99.90
69031;DHT22;56083;48.774;8.942;2023-06-05T02:41:57;8.80;99.90
69031;DHT22;56083;48.774;8.942;2023-06-05T02:44:23;8.70;99.90
69031;DHT22;56083;48.774;8.942;2023-06-05T02:46:48;8.70;99.90
69031;DHT22;56083;48.774;8.942;2023-06-05T02:49:14;8.70;99.90
69031;DHT22;56083;48.774;8.942;2023-06-05T02:51:39;8.60;99.90
69031;DHT22;56083;48.774;8.942;2023-06-05T02:54:05;8.60;99.90
69031;DHT22;56083;48.774;8.942;2023-06-05T02:56:31;8.70;99.90
69031;DHT22;56083;48.774;8.942;2023-06-05T02:58:56;8.70;99.90
69031;DHT22;56083;48.774;8.942;2023-06-05T03:01:22;8.60;99.90
69031;DHT22;56083;48.774;8.942;2023-06-05T03:03:50;8.60;99.90
69031;DHT22;56083;48.774;8.942;2023-06-05T03:06:18;8.60;99.90
69031;DHT22;56083;48.774;8.942;2023-06-05T03:08:44;8.60;99.90
69031;DHT22;56083;48.774;8.942;2023-06-05T03:11:10;8.60;99.90
69031;DHT22;56083;48.774;8.942;2023-06-05T03:13:36;8.50;99.90
69031;DHT22;56083;48.774;8.942;2023-06-05T03:16:02;8.50;99.90
69031;DHT22;56083;48.774;8.942;2023-06-05T03:18:28;8.40;99.90
69031;DHT22;56083;48.774;8.942;2023-06-05T03:20:54;8.40;99.90
69031;DHT22;56083;48.774;8.942;2023-06-05T03:23:25;8.40;99.90
69031;DHT22;56083;48.774;8.942;2023-06-05T03:25:53;8.40;99.90
69031;DHT22;56083;48.774;8.942;2023-06-05T03:28:20;8.30;99.90
69031;DHT22;56083;48.774;8.942;2023-06-05T03:30:46;8.40;99.90
69031;DHT22;56083;48.774;8.942;2023-06-05T03:33:12;8.30;99.90
69031;DHT22;56083;48.774;8.942;2023-06-05T03:35:39;8.30;99.90
69031;DHT22;56083;48.774;8.942;2023-06-05T03:38:05;8.30;99.90
69031;DHT22;56083;48.774;8.942;2023-06-05T03:40:31;8.30;99.90
69031;DHT22;56083;48.774;8.942;2023-06-05T03:42:57;8.30;99.90
69031;DHT22;56083;48.774;8.942;2023-06-05T03:45:23;8.30;99.90
69031;DHT22;56083;48.774;8.942;2023-06-05T03:47:52;8.20;99.90
69031;DHT22;56083;48.774;8.942;2023-06-05T03:50:17;8.20;99.90
69031;DHT22;56083;48.774;8.942;2023-06-05T03:52:43;8.30;99.90
69031;DHT22;56083;48.774;8.942;2023-06-05T03:55:09;8.30;99.90
69031;DHT22;56083;48.774;8.942;2023-06-05T03:57:36;8.30;99.90
69031;DHT22;56083;48.774;8.942;2023-06-05T04:00:05;8.30;99.90
69031;DHT22;56083;48.774;8.942;2023-06-05T04:02:35;8.30;99.90
69031;DHT22;56083;48.774;8.942;2023-06-05T04:05:01;8.40;99.90
69031;DHT22;56083;48.774;8.942;2023-06-05T04:07:29;8.40;99.90
69031;DHT22;56083;48.774;8.942;2023-06-05T04:09:55;8.50;99.90
69031;DHT22;56083;48.774;8.942;2023-06-05T04:12:20;8.60;99.90
69031;DHT22;56083;48.774;8.942;2023-06-05T04:14:46;8.60;99.90
69031;DHT22;56083;48.774;8.942;2023-06-05T04:17:12;8.60;99.90
69031;DHT22;56083;48.774;8.942;2023-06-05T04:19:39;8.70;99.90
69031;DHT22;56083;48.774;8.942;2023-06-05T04:22:05;8.70;99.90
69031;DHT22;56083;48.774;8.942;2023-06-05T04:24:31;8.80;99.90
69031;DHT22;56083;48.774;8.942;2023-06-05T04:26:57;8.90;99.90
69031;DHT22;56083;48.774;8.942;2023-06-05T04:29:26;8.90;99.90
69031;DHT22;56083;48.774;8.942;2023-06-05T04:31:52;9.00;99.90
69031;DHT22;56083;48.774;8.942;2023-06-05T04:34:18;9.10;99.90
69031;DHT22;56083;48.774;8.942;2023-06-05T04:36:44;9.20;99.90
69031;DHT22;56083;48.774;8.942;2023-06-05T04:39:09;9.30;99.90
69031;DHT22;56083;48.774;8.942;2023-06-05T04:41:43;9.50;99.90
69031;DHT22;56083;48.774;8.942;2023-06-05T04:44:13;9.50;99.90
69031;DHT22;56083;48.774;8.942;2023-06-05T04:46:45;9.70;99.90
69031;DHT22;56083;48.774;8.942;2023-06-05T04:49:12;9.80;99.90
69031;DHT22;56083;48.774;8.942;2023-06-05T04:51:38;9.90;99.90
69031;DHT22;56083;48.774;8.942;2023-06-05T04:54:04;9.90;99.90
69031;DHT22;56083;48.774;8.942;2023-06-05T04:56:31;10.00;99.90
69031;DHT22;56083;48.774;8.942;2023-06-05T04:58:58;10.00;99.90
69031;DHT22;56083;48.774;8.942;2023-06-05T05:01:24;10.10;99.90
69031;DHT22;56083;48.774;8.942;2023-06-05T05:03:50;10.10;99.90
69031;DHT22;56083;48.774;8.942;2023-06-05T05:06:17;10.30;99.90
69031;DHT22;56083;48.774;8.942;2023-06-05T05:08:46;10.30;99.90
69031;DHT22;56083;48.774;8.942;2023-06-05T05:11:14;10.50;99.90
69031;DHT22;56083;48.774;8.942;2023-06-05T05:13:40;10.60;99.90
69031;DHT22;56083;48.774;8.942;2023-06-05T05:16:06;10.80;99.90
69031;DHT22;56083;48.774;8.942;2023-06-05T05:18:35;10.90;99.90
69031;DHT22;56083;48.774;8.942;2023-06-05T05:21:02;11.10;99.90
69031;DHT22;56083;48.774;8.942;2023-06-05T05:23:30;11.30;99.90
69031;DHT22;56083;48.774;8.942;2023-06-05T05:25:56;11.40;99.90
69031;DHT22;56083;48.774;8.942;2023-06-05T05:28:21;11.60;99.90
69031;DHT22;56083;48.774;8.942;2023-06-05T05:30:47;11.80;99.90
69031;DHT22;56083;48.774;8.942;2023-06-05T05:33:13;12.00;99.90
69031;DHT22;56083;48.774;8.942;2023-06-05T05:35:40;12.20;99.90
69031;DHT22;56083;48.774;8.942;2023-06-05T05:38:06;12.40;99.90
69031;DHT22;56083;48.774;8.942;2023-06-05T05:40:31;12.60;99.90
69031;DHT22;56083;48.774;8.942;2023-06-05T05:42:57;12.70;99.90
69031;DHT22;56083;48.774;8.942;2023-06-05T05:45:22;12.90;99.90
69031;DHT22;56083;48.774;8.942;2023-06-05T05:47:48;13.10;99.90
69031;DHT22;56083;48.774;8.942;2023-06-05T05:50:14;13.30;99.90
69031;DHT22;56083;48.774;8.942;2023-06-05T05:52:39;13.50;99.90
69031;DHT22;56083;48.774;8.942;2023-06-05T05:55:06;13.70;99.90
69031;DHT22;56083;48.774;8.942;2023-06-05T05:57:32;13.90;99.90
69031;DHT22;56083;48.774;8.942;2023-06-05T05:59:57;14.20;99.90
69031;DHT22;56083;48.774;8.942;2023-06-05T06:02:23;14.50;99.90
69031;DHT22;56083;48.774;8.942;2023-06-05T06:04:49;14.70;99.90
69031;DHT22;56083;48.774;8.942;2023-06-05T06:07:15;14.90;99.90
69031;DHT22;56083;48.774;8.942;2023-06-05T06:09:41;15.10;99.90
69031;DHT22;56083;48.774;8.942;2023-06-05T06:12:06;15.40;99.90
69031;DHT22;56083;48.774;8.942;2023-06-05T06:14:35;15.60;99.90
69031;DHT22;56083;48.774;8.942;2023-06-05T06:17:01;15.80;99.90
69031;DHT22;56083;48.774;8.942;2023-06-05T06:19:28;16.00;99.90
69031;DHT22;56083;48.774;8.942;2023-06-05T06:21:54;16.20;99.90
69031;DHT22;56083;48.774;8.942;2023-06-05T06:24:20;16.40;99.90
69031;DHT22;56083;48.774;8.942;2023-06-05T06:26:48;16.60;99.90
69031;DHT22;56083;48.774;8.942;2023-06-05T06:29:20;16.80;99.90
69031;DHT22;56083;48.774;8.942;2023-06-05T06:31:48;17.00;99.90
69031;DHT22;56083;48.774;8.942;2023-06-05T06:34:14;17.30;99.90
69031;DHT22;56083;48.774;8.942;2023-06-05T06:36:40;17.40;99.90
69031;DHT22;56083;48.774;8.942;2023-06-05T06:39:09;17.60;99.90
69031;DHT22;56083;48.774;8.942;2023-06-05T06:41:36;17.80;99.90
69031;DHT22;56083;48.774;8.942;2023-06-05T06:44:03;18.00;99.90
69031;DHT22;56083;48.774;8.942;2023-06-05T06:46:30;18.10;99.90
69031;DHT22;56083;48.774;8.942;2023-06-05T06:48:56;18.30;99.90
69031;DHT22;56083;48.774;8.942;2023-06-05T06:51:21;18.40;99.90
69031;DHT22;56083;48.774;8.942;2023-06-05T06:53:50;18.70;99.90
69031;DHT22;56083;48.774;8.942;2023-06-05T06:56:16;18.90;99.90
69031;DHT22;56083;48.774;8.942;2023-06-05T06:58:44;19.10;99.90
69031;DHT22;56083;48.774;8.942;2023-06-05T07:01:11;19.30;99.90
69031;DHT22;56083;48.774;8.942;2023-06-05T07:03:37;19.50;99.90
69031;DHT22;56083;48.774;8.942;2023-06-05T07:06:03;19.60;99.90
69031;DHT22;56083;48.774;8.942;2023-06-05T07:08:29;19.80;99.90
69031;DHT22;56083;48.774;8.942;2023-06-05T07:10:55;19.90;99.90
69031;DHT22;56083;48.774;8.942;2023-06-05T07:13:21;20.10;99.90
69031;DHT22;56083;48.774;8.942;2023-06-05T07:15:48;20.40;99.90
69031;DHT22;56083;48.774;8.942;2023-06-05T07:18:13;20.70;99.90
69031;DHT22;56083;48.774;8.942;2023-06-05T07:20:39;20.90;99.90
69031;DHT22;56083;48.774;8.942;2023-06-05T07:23:06;21.10;99.90
69031;DHT22;56083;48.774;8.942;2023-06-05T07:25:31;21.30;99.90
69031;DHT22;56083;48.774;8.942;2023-06-05T07:27:57;21.60;99.90
69031;DHT22;56083;48.774;8.942;2023-06-05T07:30:25;21.70;99.90
69031;DHT22;56083;48.774;8.942;2023-06-05T07:32:52;21.80;99.90
69031;DHT22;56083;48.774;8.942;2023-06-05T07:35:17;21.80;99.90
69031;DHT22;56083;48.774;8.942;2023-06-05T07:37:43;22.10;99.90
69031;DHT22;56083;48.774;8.942;2023-06-05T07:40:09;22.20;99.90
69031;DHT22;56083;48.774;8.942;2023-06-05T07:42:35;22.40;99.90
69031;DHT22;56083;48.774;8.942;2023-06-05T07:45:01;22.60;99.90
69031;DHT22;56083;48.774;8.942;2023-06-05T07:47:27;22.70;99.90
69031;DHT22;56083;48.774;8.942;2023-06-05T07:50:00;22.80;99.90
69031;DHT22;56083;48.774;8.942;2023-06-05T07:52:26;23.00;99.90
69031;DHT22;56083;48.774;8.942;2023-06-05T07:54:52;23.20;99.90
69031;DHT22;56083;48.774;8.942;2023-06-05T07:57:18;23.60;99.90
69031;DHT22;56083;48.774;8.942;2023-06-05T07:59:44;24.20;99.90
69031;DHT22;56083;48.774;8.942;2023-06-05T08:02:12;24.70;99.90
69031;DHT22;56083;48.774;8.942;2023-06-05T08:04:37;25.10;99.10
69031;DHT22;56083;48.774;8.942;2023-06-05T08:07:04;25.40;97.10
69031;DHT22;56083;48.774;8.942;2023-06-05T08:09:30;25.70;96.10
69031;DHT22;56083;48.774;8.942;2023-06-05T08:11:56;25.80;95.40
69031;DHT22;56083;48.774;8.942;2023-06-05T08:14:21;26.30;94.30
69031;DHT22;56083;48.774;8.942;2023-06-05T08:16:47;26.90;93.70
69031;DHT22;56083;48.774;8.942;2023-06-05T08:19:13;27.20;92.00
69031;DHT22;56083;48.774;8.942;2023-06-05T08:21:38;27.50;90.40
69031;DHT22;56083;48.774;8.942;2023-06-05T08:24:04;27.70;90.20
69031;DHT22;56083;48.774;8.942;2023-06-05T08:26:30;27.90;90.00
69031;DHT22;56083;48.774;8.942;2023-06-05T08:28:56;28.40;87.60
69031;DHT22;56083;48.774;8.942;2023-06-05T08:31:21;28.80;84.20
69031;DHT22;56083;48.774;8.942;2023-06-05T08:33:47;28.90;84.90
69031;DHT22;56083;48.774;8.942;2023-06-05T08:36:13;29.20;81.60
69031;DHT22;56083;48.774;8.942;2023-06-05T08:38:38;29.60;81.70
69031;DHT22;56083;48.774;8.942;2023-06-05T08:41:06;30.60;78.80
69031;DHT22;56083;48.774;8.942;2023-06-05T08:43:41;31.00;74.90
69031;DHT22;56083;48.774;8.942;2023-06-05T08:46:09;31.20;75.10
69031;DHT22;56083;48.774;8.942;2023-06-05T08:48:43;31.20;72.20
69031;DHT22;56083;48.774;8.942;2023-06-05T08:51:16;31.40;69.90
69031;DHT22;56083;48.774;8.942;2023-06-05T08:53:50;32.00;70.40
69031;DHT22;56083;48.774;8.942;2023-06-05T08:56:17;31.80;69.20
69031;DHT22;56083;48.774;8.942;2023-06-05T08:58:44;31.30;68.20
69031;DHT22;56083;48.774;8.942;2023-06-05T09:01:10;30.80;68.00
69031;DHT22;56083;48.774;8.942;2023-06-05T09:03:36;31.40;70.20
69031;DHT22;56083;48.774;8.942;2023-06-05T09:06:03;32.20;67.10
69031;DHT22;56083;48.774;8.942;2023-06-05T09:08:33;33.30;66.50
69031;DHT22;56083;48.774;8.942;2023-06-05T09:13:46;33.20;65.30
69031;DHT22;56083;48.774;8.942;2023-06-05T09:16:12;33.00;65.50
69031;DHT22;56083;48.774;8.942;2023-06-05T09:18:55;33.30;65.90
69031;DHT22;56083;48.774;8.942;2023-06-05T09:21:23;32.80;66.10
69031;DHT22;56083;48.774;8.942;2023-06-05T09:24:15;33.60;64.40
69031;DHT22;56083;48.774;8.942;2023-06-05T09:29:13;33.90;63.80
69031;DHT22;56083;48.774;8.942;2023-06-05T09:31:41;34.00;63.20
69031;DHT22;56083;48.774;8.942;2023-06-05T09:34:07;32.90;60.90
69031;DHT22;56083;48.774;8.942;2023-06-05T09:36:33;31.70;65.50
69031;DHT22;56083;48.774;8.942;2023-06-05T09:39:14;31.50;64.70
69031;DHT22;56083;48.774;8.942;2023-06-05T09:41:49;31.60;67.30
69031;DHT22;56083;48.774;8.942;2023-06-05T09:44:16;32.30;65.80
69031;DHT22;56083;48.774;8.942;2023-06-05T09:49:24;34.00;60.50
69031;DHT22;56083;48.774;8.942;2023-06-05T09:51:50;33.20;61.00
69031;DHT22;56083;48.774;8.942;2023-06-05T09:54:16;31.50;62.40
69031;DHT22;56083;48.774;8.942;2023-06-05T09:56:49;31.60;65.30
69031;DHT22;56083;48.774;8.942;2023-06-05T09:59:20;31.90;63.50
69031;DHT22;56083;48.774;8.942;2023-06-05T10:01:51;32.10;61.90
69031;DHT22;56083;48.774;8.942;2023-06-05T10:04:23;33.10;62.90
69031;DHT22;56083;48.774;8.942;2023-06-05T10:06:51;33.90;60.30
69031;DHT22;56083;48.774;8.942;2023-06-05T10:09:17;33.00;59.30
69031;DHT22;56083;48.774;8.942;2023-06-05T10:11:43;32.70;61.30
69031;DHT22;56083;48.774;8.942;2023-06-05T10:14:13;31.70;62.80
69031;DHT22;56083;48.774;8.942;2023-06-05T10:16:39;30.40;65.30
69031;DHT22;56083;48.774;8.942;2023-06-05T10:19:06;29.00;66.90
69031;DHT22;56083;48.774;8.942;2023-06-05T10:21:32;29.50;70.00
69031;DHT22;56083;48.774;8.942;2023-06-05T10:24:13;31.00;68.20
69031;DHT22;56083;48.774;8.942;2023-06-05T10:29:33;34.30;60.90
69031;DHT22;56083;48.774;8.942;2023-06-05T10:32:05;35.90;57.00
69031;DHT22;56083;48.774;8.942;2023-06-05T10:40:06;36.20;53.70
69031;DHT22;56083;48.774;8.942;2023-06-05T10:42:33;35.10;53.90
69031;DHT22;56083;48.774;8.942;2023-06-05T10:44:59;34.70;53.20
69031;DHT22;56083;48.774;8.942;2023-06-05T10:52:45;30.30;60.60
69031;DHT22;56083;48.774;8.942;2023-06-05T10:55:11;31.40;59.10
69031;DHT22;56083;48.774;8.942;2023-06-05T11:00:27;32.70;58.10
69031;DHT22;56083;48.774;8.942;2023-06-05T11:02:53;33.50;56.90
69031;DHT22;56083;48.774;8.942;2023-06-05T11:05:19;34.30;56.30
69031;DHT22;56083;48.774;8.942;2023-06-05T11:07:45;34.30;55.90
69031;DHT22;56083;48.774;8.942;2023-06-05T11:10:20;33.80;55.60
69031;DHT22;56083;48.774;8.942;2023-06-05T11:17:42;31.70;56.60
69031;DHT22;56083;48.774;8.942;2023-06-05T11:20:08;32.40;56.40
69031;DHT22;56083;48.774;8.942;2023-06-05T11:30:26;34.60;53.70
69031;DHT22;56083;48.774;8.942;2023-06-05T11:32:54;35.50;53.10
69031;DHT22;56083;48.774;8.942;2023-06-05T11:35:26;36.20;50.70
69031;DHT22;56083;48.774;8.942;2023-06-05T11:38:19;36.00;50.50
69031;DHT22;56083;48.774;8.942;2023-06-05T11:40:46;35.40;50.00
69031;DHT22;56083;48.774;8.942;2023-06-05T11:43:12;33.90;51.40
69031;DHT22;56083;48.774;8.942;2023-06-05T11:45:40;33.40;51.80
69031;DHT22;56083;48.774;8.942;2023-06-05T11:48:10;34.00;51.10
69031;DHT22;56083;48.774;8.942;2023-06-05T11:50:37;34.60;50.20
69031;DHT22;56083;48.774;8.942;2023-06-05T11:53:07;35.00;49.50
69031;DHT22;56083;48.774;8.942;2023-06-05T11:55:33;36.20;47.40
69031;DHT22;56083;48.774;8.942;2023-06-05T11:58:24;36.80;46.50
69031;DHT22;56083;48.774;8.942;2023-06-05T12:00:50;36.80;47.30
69031;DHT22;56083;48.774;8.942;2023-06-05T12:03:19;36.40;46.50
69031;DHT22;56083;48.774;8.942;2023-06-05T12:05:48;35.20;46.60
69031;DHT22;56083;48.774;8.942;2023-06-05T12:08:27;34.20;47.60
69031;DHT22;56083;48.774;8.942;2023-06-05T12:10:54;32.40;49.70
69031;DHT22;56083;48.774;8.942;2023-06-05T12:13:22;32.80;51.50
69031;DHT22;56083;48.774;8.942;2023-06-05T12:16:00;33.20;48.90
69031;DHT22;56083;48.774;8.942;2023-06-05T12:18:32;31.70;49.40
69031;DHT22;56083;48.774;8.942;2023-06-05T12:21:01;31.70;51.50
69031;DHT22;56083;48.774;8.942;2023-06-05T12:23:30;32.50;50.10
69031;DHT22;56083;48.774;8.942;2023-06-05T12:26:03;33.60;49.60
69031;DHT22;56083;48.774;8.942;2023-06-05T12:28:30;35.20;47.60
69031;DHT22;56083;48.774;8.942;2023-06-05T12:30:56;36.00;46.50
69031;DHT22;56083;48.774;8.942;2023-06-05T12:33:23;36.30;44.90
69031;DHT22;56083;48.774;8.942;2023-06-05T12:36:07;36.80;44.90
69031;DHT22;56083;48.774;8.942;2023-06-05T12:38:37;37.80;44.40
69031;DHT22;56083;48.774;8.942;2023-06-05T12:41:04;38.30;42.10
69031;DHT22;56083;48.774;8.942;2023-06-05T12:43:32;38.30;41.20
69031;DHT22;56083;48.774;8.942;2023-06-05T12:45:58;38.50;41.50
69031;DHT22;56083;48.774;8.942;2023-06-05T12:48:24;38.90;40.60
69031;DHT22;56083;48.774;8.942;2023-06-05T12:50:51;39.00;40.20
69031;DHT22;56083;48.774;8.942;2023-06-05T12:53:17;38.80;40.70
69031;DHT22;56083;48.774;8.942;2023-06-05T12:55:43;38.50;42.50
69031;DHT22;56083;48.774;8.942;2023-06-05T12:58:10;38.50;41.10
69031;DHT22;56083;48.774;8.942;2023-06-05T13:00:36;37.30;42.30
69031;DHT22;56083;48.774;8.942;2023-06-05T13:03:02;35.60;42.90
69031;DHT22;56083;48.774;8.942;2023-06-05T13:05:32;33.60;45.80
69031;DHT22;56083;48.774;8.942;2023-06-05T13:07:58;33.50;47.60
69031;DHT22;56083;48.774;8.942;2023-06-05T13:10:24;34.70;45.30
69031;DHT22;56083;48.774;8.942;2023-06-05T13:12:50;35.50;44.70
69031;DHT22;56083;48.774;8.942;2023-06-05T13:15:15;35.80;44.20
69031;DHT22;56083;48.774;8.942;2023-06-05T13:17:41;36.30;43.50
69031;DHT22;56083;48.774;8.942;2023-06-05T13:20:07;37.00;43.40
69031;DHT22;56083;48.774;8.942;2023-06-05T13:22:39;36.70;41.80
69031;DHT22;56083;48.774;8.942;2023-06-05T13:25:09;36.00;42.30
69031;DHT22;56083;48.774;8.942;2023-06-05T13:27:35;36.30;42.80
69031;DHT22;56083;48.774;8.942;2023-06-05T13:30:01;36.80;42.50
69031;DHT22;56083;48.774;8.942;2023-06-05T13:32:29;37.40;42.50
69031;DHT22;56083;48.774;8.942;2023-06-05T13:34:55;38.20;40.80
69031;DHT22;56083;48.774;8.942;2023-06-05T13:37:22;38.00;39.70
69031;DHT22;56083;48.774;8.942;2023-06-05T13:39:48;37.80;40.60
69031;DHT22;56083;48.774;8.942;2023-06-05T13:42:14;38.10;40.40
69031;DHT22;56083;48.774;8.942;2023-06-05T13:44:39;38.90;39.00
69031;DHT22;56083;48.774;8.942;2023-06-05T13:47:06;38.30;39.00
69031;DHT22;56083;48.774;8.942;2023-06-05T13:49:34;38.00;39.80
69031;DHT22;56083;48.774;8.942;2023-06-05T13:51:59;37.80;40.00
69031;DHT22;56083;48.774;8.942;2023-06-05T13:54:25;37.80;40.10
69031;DHT22;56083;48.774;8.942;2023-06-05T13:56:51;37.40;40.60
69031;DHT22;56083;48.774;8.942;2023-06-05T13:59:19;36.40;41.70
69031;DHT22;56083;48.774;8.942;2023-06-05T14:01:45;35.40;42.40
69031;DHT22;56083;48.774;8.942;2023-06-05T14:04:10;35.30;42.70
69031;DHT22;56083;48.774;8.942;2023-06-05T14:06:36;35.50;41.70
69031;DHT22;56083;48.774;8.942;2023-06-05T14:09:05;35.30;42.50
69031;DHT22;56083;48.774;8.942;2023-06-05T14:11:31;35.50;42.00
69031;DHT22;56083;48.774;8.942;2023-06-05T14:13:56;35.50;41.30
69031;DHT22;56083;48.774;8.942;2023-06-05T14:16:23;35.80;42.70
69031;DHT22;56083;48.774;8.942;2023-06-05T14:18:49;36.30;41.10
69031;DHT22;56083;48.774;8.942;2023-06-05T14:21:15;36.20;41.20
69031;DHT22;56083;48.774;8.942;2023-06-05T14:23:41;36.50;40.70
69031;DHT22;56083;48.774;8.942;2023-06-05T14:26:08;35.00;41.70
69031;DHT22;56083;48.774;8.942;2023-06-05T14:28:33;33.60;44.70
69031;DHT22;56083;48.774;8.942;2023-06-05T14:30:59;32.00;45.40
69031;DHT22;56083;48.774;8.942;2023-06-05T14:33:25;31.00;47.10
69031;DHT22;56083;48.774;8.942;2023-06-05T14:35:50;30.70;47.50
69031;DHT22;56083;48.774;8.942;2023-06-05T14:38:16;31.80;47.40
69031;DHT22;56083;48.774;8.942;2023-06-05T14:40:42;32.70;46.00
69031;DHT22;56083;48.774;8.942;2023-06-05T14:43:07;33.80;44.30
69031;DHT22;56083;48.774;8.942;2023-06-05T14:45:36;34.30;43.80
69031;DHT22;56083;48.774;8.942;2023-06-05T14:48:01;34.80;42.60
69031;DHT22;56083;48.774;8.942;2023-06-05T14:50:28;34.60;41.50
69031;DHT22;56083;48.774;8.942;2023-06-05T14:52:54;34.30;41.80
69031;DHT22;56083;48.774;8.942;2023-06-05T14:55:20;34.30;42.50
69031;DHT22;56083;48.774;8.942;2023-06-05T14:57:45;34.60;41.90
69031;DHT22;56083;48.774;8.942;2023-06-05T15:00:11;34.30;42.00
69031;DHT22;56083;48.774;8.942;2023-06-05T15:02:37;34.80;42.40
69031;DHT22;56083;48.774;8.942;2023-06-05T15:05:03;34.80;42.20
69031;DHT22;56083;48.774;8.942;2023-06-05T15:07:39;34.50;42.20
69031;DHT22;56083;48.774;8.942;2023-06-05T15:10:06;34.90;41.80
69031;DHT22;56083;48.774;8.942;2023-06-05T15:12:33;35.30;41.90
69031;DHT22;56083;48.774;8.942;2023-06-05T15:14:59;35.20;40.80
69031;DHT22;56083;48.774;8.942;2023-06-05T15:17:25;34.70;41.60
69031;DHT22;56083;48.774;8.942;2023-06-05T15:19:50;34.70;41.60
69031;DHT22;56083;48.774;8.942;2023-06-05T15:22:16;35.10;41.10
69031;DHT22;56083;48.774;8.942;2023-06-05T15:24:41;34.80;42.90
69031;DHT22;56083;48.774;8.942;2023-06-05T15:27:07;34.60;41.60
69031;DHT22;56083;48.774;8.942;2023-06-05T15:29:34;34.50;41.30
69031;DHT22;56083;48.774;8.942;2023-06-05T15:32:00;34.30;41.40
69031;DHT22;56083;48.774;8.942;2023-06-05T15:34:25;34.50;42.00
69031;DHT22;56083;48.774;8.942;2023-06-05T15:36:51;34.60;41.40
69031;DHT22;56083;48.774;8.942;2023-06-05T15:39:16;34.40;41.50
69031;DHT22;56083;48.774;8.942;2023-06-05T15:41:42;34.50;41.50
69031;DHT22;56083;48.774;8.942;2023-06-05T15:44:08;34.10;42.40
69031;DHT22;56083;48.774;8.942;2023-06-05T15:46:35;33.40;41.00
69031;DHT22;56083;48.774;8.942;2023-06-05T15:49:01;33.40;41.90
69031;DHT22;56083;48.774;8.942;2023-06-05T15:51:27;33.50;42.40
69031;DHT22;56083;48.774;8.942;2023-06-05T15:53:54;33.50;42.10
69031;DHT22;56083;48.774;8.942;2023-06-05T15:56:20;33.30;43.00
69031;DHT22;56083;48.774;8.942;2023-06-05T15:58:46;33.40;41.80
69031;DHT22;56083;48.774;8.942;2023-06-05T16:01:12;33.30;41.80
69031;DHT22;56083;48.774;8.942;2023-06-05T16:03:38;32.90;42.80
69031;DHT22;56083;48.774;8.942;2023-06-05T16:06:04;33.00;42.80
69031;DHT22;56083;48.774;8.942;2023-06-05T16:08:30;32.70;41.50
69031;DHT22;56083;48.774;8.942;2023-06-05T16:10:56;32.40;42.20
69031;DHT22;56083;48.774;8.942;2023-06-05T16:13:26;32.30;43.00
69031;DHT22;56083;48.774;8.942;2023-06-05T16:15:52;32.00;43.30
69031;DHT22;56083;48.774;8.942;2023-06-05T16:18:18;31.20;44.40